sensor_id;sensor_type;location;lat;lon;timestamp;temperature;humidity
51739;DHT22;37815;52.692;6.226;2023-08-30T00:00:26;19.00;93.30
51739;DHT22;37815;52.692;6.226;2023-08-30T00:05:26;19.00;93.30
51739;DHT22;37815;52.692;6.226;2023-08-30T00:10:28;19.00;93.30
51739;DHT22;37815;52.692;6.226;2023-08-30T00:15:29;19.00;93.30
51739;DHT22;37815;52.692;6.226;2023-08-30T00:20:30;19.00;93.30
51739;DHT22;37815;52.692;6.226;2023-08-30T00:25:30;18.90;93.30
51739;DHT22;37815;52.692;6.226;2023-08-30T00:30:31;18.90;93.20
51739;DHT22;37815;52.692;6.226;2023-08-30T00:35:31;18.90;93.20
51739;DHT22;37815;52.692;6.226;2023-08-30T00:40:38;18.90;93.20
51739;DHT22;37815;52.692;6.226;2023-08-30T00:45:40;18.90;93.20
51739;DHT22;37815;52.692;6.226;2023-08-30T00:50:41;18.90;93.20
51739;DHT22;37815;52.692;6.226;2023-08-30T00:55:42;18.80;93.10
51739;DHT22;37815;52.692;6.226;2023-08-30T01:00:43;18.80;93.10
51739;DHT22;37815;52.692;6.226;2023-08-30T01:05:44;18.80;93.10
51739;DHT22;37815;52.692;6.226;2023-08-30T01:11:05;18.80;93.00
51739;DHT22;37815;52.692;6.226;2023-08-30T01:16:08;18.80;93.00
51739;DHT22;37815;52.692;6.226;2023-08-30T01:21:14;18.80;93.00
51739;DHT22;37815;52.692;6.226;2023-08-30T01:31:49;18.70;93.00
51739;DHT22;37815;52.692;6.226;2023-08-30T01:36:51;18.70;93.00
51739;DHT22;37815;52.692;6.226;2023-08-30T01:41:52;18.70;92.90
51739;DHT22;37815;52.692;6.226;2023-08-30T01:47:00;18.70;92.90
51739;DHT22;37815;52.692;6.226;2023-08-30T01:52:01;18.70;92.90
51739;DHT22;37815;52.692;6.226;2023-08-30T01:57:02;18.70;92.90
51739;DHT22;37815;52.692;6.226;2023-08-30T02:02:03;18.70;92.90
51739;DHT22;37815;52.692;6.226;2023-08-30T02:07:20;18.70;92.90
51739;DHT22;37815;52.692;6.226;2023-08-30T02:12:23;18.70;92.90
51739;DHT22;37815;52.692;6.226;2023-08-30T02:17:27;18.60;92.90
51739;DHT22;37815;52.692;6.226;2023-08-30T02:22:30;18.60;92.90
51739;DHT22;37815;52.692;6.226;2023-08-30T02:27:32;18.60;92.90
51739;DHT22;37815;52.692;6.226;2023-08-30T02:32:34;18.60;92.90
51739;DHT22;37815;52.692;6.226;2023-08-30T02:37:34;18.60;92.90
51739;DHT22;37815;52.692;6.226;2023-08-30T02:42:35;18.60;92.90
51739;DHT22;37815;52.692;6.226;2023-08-30T02:47:36;18.50;92.90
51739;DHT22;37815;52.692;6.226;2023-08-30T02:52:36;18.50;92.90
51739;DHT22;37815;52.692;6.226;2023-08-30T02:57:37;18.50;92.80
51739;DHT22;37815;52.692;6.226;2023-08-30T03:02:37;18.50;92.80
51739;DHT22;37815;52.692;6.226;2023-08-30T03:07:38;18.50;92.80
51739;DHT22;37815;52.692;6.226;2023-08-30T03:12:39;18.50;92.80
51739;DHT22;37815;52.692;6.226;2023-08-30T03:17:39;18.50;92.80
51739;DHT22;37815;52.692;6.226;2023-08-30T03:22:40;18.50;92.80
51739;DHT22;37815;52.692;6.226;2023-08-30T03:27:41;18.40;92.80
51739;DHT22;37815;52.692;6.226;2023-08-30T03:32:41;18.40;92.80
51739;DHT22;37815;52.692;6.226;2023-08-30T03:37:42;18.40;92.80
51739;DHT22;37815;52.692;6.226;2023-08-30T03:42:43;18.40;92.80
51739;DHT22;37815;52.692;6.226;2023-08-30T03:47:43;18.40;92.80
51739;DHT22;37815;52.692;6.226;2023-08-30T03:52:44;18.40;92.80
51739;DHT22;37815;52.692;6.226;2023-08-30T03:57:45;18.40;92.80
51739;DHT22;37815;52.692;6.226;2023-08-30T04:02:45;18.40;92.80
51739;DHT22;37815;52.692;6.226;2023-08-30T04:07:46;18.40;92.80
51739;DHT22;37815;52.692;6.226;2023-08-30T04:12:46;18.30;92.70
51739;DHT22;37815;52.692;6.226;2023-08-30T04:17:47;18.30;93.00
51739;DHT22;37815;52.692;6.226;2023-08-30T04:22:48;18.40;92.70
51739;DHT22;37815;52.692;6.226;2023-08-30T04:27:48;18.30;92.70
51739;DHT22;37815;52.692;6.226;2023-08-30T04:32:49;18.30;92.70
51739;DHT22;37815;52.692;6.226;2023-08-30T04:37:49;18.30;92.70
51739;DHT22;37815;52.692;6.226;2023-08-30T04:42:50;18.30;92.70
51739;DHT22;37815;52.692;6.226;2023-08-30T04:47:51;18.30;92.70
51739;DHT22;37815;52.692;6.226;2023-08-30T04:52:51;18.30;92.70
51739;DHT22;37815;52.692;6.226;2023-08-30T04:57:52;18.30;92.70
51739;DHT22;37815;52.692;6.226;2023-08-30T05:02:53;18.30;92.70
51739;DHT22;37815;52.692;6.226;2023-08-30T05:07:53;18.30;92.80
51739;DHT22;37815;52.692;6.226;2023-08-30T05:12:54;18.20;92.70
51739;DHT22;37815;52.692;6.226;2023-08-30T05:17:54;18.30;92.70
51739;DHT22;37815;52.692;6.226;2023-08-30T05:22:55;18.20;92.70
51739;DHT22;37815;52.692;6.226;2023-08-30T05:27:56;18.20;92.60
51739;DHT22;37815;52.692;6.226;2023-08-30T05:32:57;18.30;92.60
51739;DHT22;37815;52.692;6.226;2023-08-30T05:37:57;18.30;92.60
51739;DHT22;37815;52.692;6.226;2023-08-30T05:42:58;18.30;92.50
51739;DHT22;37815;52.692;6.226;2023-08-30T05:47:58;18.30;92.50
51739;DHT22;37815;52.692;6.226;2023-08-30T05:52:59;18.30;92.50
51739;DHT22;37815;52.692;6.226;2023-08-30T05:58:00;18.20;92.40
51739;DHT22;37815;52.692;6.226;2023-08-30T06:03:00;18.30;92.50
51739;DHT22;37815;52.692;6.226;2023-08-30T06:08:01;18.30;92.40
51739;DHT22;37815;52.692;6.226;2023-08-30T06:13:02;18.30;92.40
51739;DHT22;37815;52.692;6.226;2023-08-30T06:18:03;18.30;92.40
51739;DHT22;37815;52.692;6.226;2023-08-30T06:23:04;18.30;92.40
51739;DHT22;37815;52.692;6.226;2023-08-30T06:28:05;18.30;92.40
51739;DHT22;37815;52.692;6.226;2023-08-30T06:33:05;18.30;92.30
51739;DHT22;37815;52.692;6.226;2023-08-30T06:38:06;18.30;92.30
51739;DHT22;37815;52.692;6.226;2023-08-30T06:43:07;18.30;92.30
51739;DHT22;37815;52.692;6.226;2023-08-30T06:48:07;18.30;92.30
51739;DHT22;37815;52.692;6.226;2023-08-30T06:53:08;18.30;92.30
51739;DHT22;37815;52.692;6.226;2023-08-30T06:58:09;18.30;92.20
51739;DHT22;37815;52.692;6.226;2023-08-30T07:03:10;18.30;92.20
51739;DHT22;37815;52.692;6.226;2023-08-30T07:08:10;18.40;92.20
51739;DHT22;37815;52.692;6.226;2023-08-30T07:13:11;18.40;92.10
51739;DHT22;37815;52.692;6.226;2023-08-30T07:18:13;18.40;92.00
51739;DHT22;37815;52.692;6.226;2023-08-30T07:23:14;18.40;92.00
51739;DHT22;37815;52.692;6.226;2023-08-30T07:28:15;18.50;91.90
51739;DHT22;37815;52.692;6.226;2023-08-30T07:33:17;18.50;91.90
51739;DHT22;37815;52.692;6.226;2023-08-30T07:38:18;18.50;91.90
51739;DHT22;37815;52.692;6.226;2023-08-30T07:43:18;18.50;91.90
51739;DHT22;37815;52.692;6.226;2023-08-30T07:48:19;18.50;91.90
51739;DHT22;37815;52.692;6.226;2023-08-30T07:53:20;18.50;91.80
51739;DHT22;37815;52.692;6.226;2023-08-30T07:58:20;18.50;91.90
51739;DHT22;37815;52.692;6.226;2023-08-30T08:03:21;18.50;91.90
51739;DHT22;37815;52.692;6.226;2023-08-30T08:08:22;18.50;91.90
51739;DHT22;37815;52.692;6.226;2023-08-30T08:13:22;18.50;91.90
51739;DHT22;37815;52.692;6.226;2023-08-30T08:18:23;18.50;92.00
51739;DHT22;37815;52.692;6.226;2023-08-30T08:23:24;18.50;92.00
51739;DHT22;37815;52.692;6.226;2023-08-30T08:28:24;18.50;92.00
51739;DHT22;37815;52.692;6.226;2023-08-30T08:33:25;18.40;92.10
51739;DHT22;37815;52.692;6.226;2023-08-30T08:38:26;18.40;92.10
51739;DHT22;37815;52.692;6.226;2023-08-30T08:43:28;18.40;92.20
51739;DHT22;37815;52.692;6.226;2023-08-30T08:48:31;18.40;92.20
51739;DHT22;37815;52.692;6.226;2023-08-30T08:53:34;18.40;92.30
51739;DHT22;37815;52.692;6.226;2023-08-30T08:58:36;18.40;92.40
51739;DHT22;37815;52.692;6.226;2023-08-30T09:03:38;18.40;92.40
51739;DHT22;37815;52.692;6.226;2023-08-30T09:08:38;18.40;92.50
51739;DHT22;37815;52.692;6.226;2023-08-30T09:13:39;18.40;92.50
51739;DHT22;37815;52.692;6.226;2023-08-30T09:18:41;18.40;92.60
51739;DHT22;37815;52.692;6.226;2023-08-30T09:23:42;18.40;92.60
51739;DHT22;37815;52.692;6.226;2023-08-30T09:28:42;18.40;92.60
51739;DHT22;37815;52.692;6.226;2023-08-30T09:33:45;18.40;92.60
51739;DHT22;37815;52.692;6.226;2023-08-30T09:38:48;18.50;92.60
51739;DHT22;37815;52.692;6.226;2023-08-30T09:43:50;18.50;92.60
51739;DHT22;37815;52.692;6.226;2023-08-30T09:48:51;18.50;92.60
51739;DHT22;37815;52.692;6.226;2023-08-30T09:53:58;18.60;92.60
51739;DHT22;37815;52.692;6.226;2023-08-30T09:59:02;18.60;92.60
51739;DHT22;37815;52.692;6.226;2023-08-30T10:04:04;18.60;92.60
51739;DHT22;37815;52.692;6.226;2023-08-30T10:09:08;18.60;92.60
51739;DHT22;37815;52.692;6.226;2023-08-30T10:14:08;18.60;92.70
51739;DHT22;37815;52.692;6.226;2023-08-30T10:19:15;18.50;93.00
51739;DHT22;37815;52.692;6.226;2023-08-30T10:24:19;18.50;92.80
51739;DHT22;37815;52.692;6.226;2023-08-30T10:29:21;18.50;92.80
51739;DHT22;37815;52.692;6.226;2023-08-30T10:34:23;18.50;92.90
51739;DHT22;37815;52.692;6.226;2023-08-30T10:39:42;18.50;92.90
51739;DHT22;37815;52.692;6.226;2023-08-30T10:49:50;18.50;92.90
51739;DHT22;37815;52.692;6.226;2023-08-30T10:54:50;18.50;93.30
51739;DHT22;37815;52.692;6.226;2023-08-30T11:00:20;18.50;93.00
51739;DHT22;37815;52.692;6.226;2023-08-30T11:05:26;18.50;93.10
51739;DHT22;37815;52.692;6.226;2023-08-30T11:10:26;18.50;93.10
51739;DHT22;37815;52.692;6.226;2023-08-30T11:15:27;18.50;93.10
51739;DHT22;37815;52.692;6.226;2023-08-30T11:20:28;18.50;93.10
51739;DHT22;37815;52.692;6.226;2023-08-30T11:25:28;18.50;93.20
51739;DHT22;37815;52.692;6.226;2023-08-30T11:30:30;18.50;93.20
51739;DHT22;37815;52.692;6.226;2023-08-30T11:35:30;18.50;93.30
51739;DHT22;37815;52.692;6.226;2023-08-30T11:40:32;18.50;93.30
51739;DHT22;37815;52.692;6.226;2023-08-30T11:45:33;18.50;93.30
51739;DHT22;37815;52.692;6.226;2023-08-30T11:50:35;18.50;93.30
51739;DHT22;37815;52.692;6.226;2023-08-30T11:55:36;18.50;93.40
51739;DHT22;37815;52.692;6.226;2023-08-30T12:00:38;17.40;93.20
51739;DHT22;37815;52.692;6.226;2023-08-30T12:05:47;18.60;93.50
51739;DHT22;37815;52.692;6.226;2023-08-30T12:10:48;18.60;93.50
51739;DHT22;37815;52.692;6.226;2023-08-30T12:15:49;18.60;93.50
51739;DHT22;37815;52.692;6.226;2023-08-30T12:20:57;18.60;93.50
51739;DHT22;37815;52.692;6.226;2023-08-30T12:31:04;18.60;93.60
51739;DHT22;37815;52.692;6.226;2023-08-30T12:36:05;18.60;93.60
51739;DHT22;37815;52.692;6.226;2023-08-30T12:41:06;18.60;93.60
51739;DHT22;37815;52.692;6.226;2023-08-30T12:46:07;18.50;93.90
51739;DHT22;37815;52.692;6.226;2023-08-30T12:51:07;18.60;94.60
51739;DHT22;37815;52.692;6.226;2023-08-30T12:56:08;18.50;95.10
51739;DHT22;37815;52.692;6.226;2023-08-30T13:01:08;18.50;95.00
51739;DHT22;37815;52.692;6.226;2023-08-30T13:06:09;18.60;95.10
51739;DHT22;37815;52.692;6.226;2023-08-30T13:11:10;18.60;95.30
51739;DHT22;37815;52.692;6.226;2023-08-30T13:16:10;18.70;95.30
51739;DHT22;37815;52.692;6.226;2023-08-30T13:21:11;18.70;95.30
51739;DHT22;37815;52.692;6.226;2023-08-30T13:26:12;18.70;96.00
51739;DHT22;37815;52.692;6.226;2023-08-30T13:31:12;18.70;96.00
51739;DHT22;37815;52.692;6.226;2023-08-30T13:36:13;18.70;96.10
51739;DHT22;37815;52.692;6.226;2023-08-30T13:41:13;18.80;96.20
51739;DHT22;37815;52.692;6.226;2023-08-30T13:46:14;18.90;96.60
51739;DHT22;37815;52.692;6.226;2023-08-30T13:51:23;18.90;96.50
51739;DHT22;37815;52.692;6.226;2023-08-30T13:56:24;19.00;96.50
51739;DHT22;37815;52.692;6.226;2023-08-30T14:01:25;19.00;96.40
51739;DHT22;37815;52.692;6.226;2023-08-30T14:06:25;19.00;96.40
51739;DHT22;37815;52.692;6.226;2023-08-30T14:11:26;19.00;96.30
51739;DHT22;37815;52.692;6.226;2023-08-30T14:16:27;19.00;96.30
51739;DHT22;37815;52.692;6.226;2023-08-30T14:21:27;19.00;96.30
51739;DHT22;37815;52.692;6.226;2023-08-30T14:26:28;19.10;96.20
51739;DHT22;37815;52.692;6.226;2023-08-30T14:31:29;19.30;96.00
51739;DHT22;37815;52.692;6.226;2023-08-30T14:36:31;19.40;95.80
51739;DHT22;37815;52.692;6.226;2023-08-30T14:41:31;19.50;95.50
51739;DHT22;37815;52.692;6.226;2023-08-30T14:46:33;19.60;95.40
51739;DHT22;37815;52.692;6.226;2023-08-30T14:51:34;19.60;95.30
51739;DHT22;37815;52.692;6.226;2023-08-30T14:56:34;19.40;95.40
51739;DHT22;37815;52.692;6.226;2023-08-30T15:01:36;19.40;95.40
51739;DHT22;37815;52.692;6.226;2023-08-30T15:06:37;19.40;95.50
51739;DHT22;37815;52.692;6.226;2023-08-30T15:11:43;19.40;95.50
51739;DHT22;37815;52.692;6.226;2023-08-30T15:16:43;19.50;95.30
51739;DHT22;37815;52.692;6.226;2023-08-30T15:21:45;19.60;95.30
51739;DHT22;37815;52.692;6.226;2023-08-30T15:26:46;19.60;95.30
51739;DHT22;37815;52.692;6.226;2023-08-30T15:31:48;19.50;95.20
51739;DHT22;37815;52.692;6.226;2023-08-30T15:36:51;19.50;95.30
51739;DHT22;37815;52.692;6.226;2023-08-30T15:41:52;19.50;95.30
51739;DHT22;37815;52.692;6.226;2023-08-30T15:46:53;19.50;95.30
51739;DHT22;37815;52.692;6.226;2023-08-30T15:51:53;19.40;95.30
51739;DHT22;37815;52.692;6.226;2023-08-30T15:56:54;19.40;95.10
51739;DHT22;37815;52.692;6.226;2023-08-30T16:01:54;19.40;95.10
51739;DHT22;37815;52.692;6.226;2023-08-30T16:06:55;19.50;95.10
51739;DHT22;37815;52.692;6.226;2023-08-30T16:11:56;19.50;95.20
51739;DHT22;37815;52.692;6.226;2023-08-30T16:16:56;19.40;95.20
51739;DHT22;37815;52.692;6.226;2023-08-30T16:21:57;19.40;95.30
51739;DHT22;37815;52.692;6.226;2023-08-30T16:26:57;19.30;95.30
51739;DHT22;37815;52.692;6.226;2023-08-30T16:32:00;19.30;95.50
51739;DHT22;37815;52.692;6.226;2023-08-30T16:37:01;19.30;95.60
51739;DHT22;37815;52.692;6.226;2023-08-30T16:42:01;19.20;95.50
51739;DHT22;37815;52.692;6.226;2023-08-30T16:47:02;19.20;95.40
51739;DHT22;37815;52.692;6.226;2023-08-30T16:52:03;19.30;95.50
51739;DHT22;37815;52.692;6.226;2023-08-30T16:57:04;19.30;95.40
51739;DHT22;37815;52.692;6.226;2023-08-30T17:02:05;19.30;95.30
51739;DHT22;37815;52.692;6.226;2023-08-30T17:07:05;19.30;95.10
51739;DHT22;37815;52.692;6.226;2023-08-30T17:12:06;19.30;95.10
51739;DHT22;37815;52.692;6.226;2023-08-30T17:17:07;19.30;94.90
51739;DHT22;37815;52.692;6.226;2023-08-30T17:22:08;19.30;95.00
51739;DHT22;37815;52.692;6.226;2023-08-30T17:27:09;19.30;95.00
51739;DHT22;37815;52.692;6.226;2023-08-30T17:32:10;19.30;95.10
51739;DHT22;37815;52.692;6.226;2023-08-30T17:37:10;19.20;95.00
51739;DHT22;37815;52.692;6.226;2023-08-30T17:42:11;19.10;95.10
51739;DHT22;37815;52.692;6.226;2023-08-30T17:47:12;19.20;95.10
51739;DHT22;37815;52.692;6.226;2023-08-30T17:52:12;19.20;95.10
51739;DHT22;37815;52.692;6.226;2023-08-30T17:57:13;19.10;95.30
51739;DHT22;37815;52.692;6.226;2023-08-30T18:02:14;19.10;95.10
51739;DHT22;37815;52.692;6.226;2023-08-30T18:07:15;19.20;95.00
51739;DHT22;37815;52.692;6.226;2023-08-30T18:12:15;19.10;95.00
51739;DHT22;37815;52.692;6.226;2023-08-30T18:17:16;19.10;95.00
51739;DHT22;37815;52.692;6.226;2023-08-30T18:22:18;19.10;95.10
51739;DHT22;37815;52.692;6.226;2023-08-30T18:27:18;19.10;95.10
51739;DHT22;37815;52.692;6.226;2023-08-30T18:32:19;19.10;95.10
51739;DHT22;37815;52.692;6.226;2023-08-30T18:37:21;19.10;95.10
51739;DHT22;37815;52.692;6.226;2023-08-30T18:42:21;19.10;95.10
51739;DHT22;37815;52.692;6.226;2023-08-30T18:47:22;19.00;95.20
51739;DHT22;37815;52.692;6.226;2023-08-30T18:52:22;19.00;95.20
51739;DHT22;37815;52.692;6.226;2023-08-30T18:57:23;19.00;95.20
51739;DHT22;37815;52.692;6.226;2023-08-30T19:02:24;19.00;95.20
51739;DHT22;37815;52.692;6.226;2023-08-30T19:07:24;19.00;95.20
51739;DHT22;37815;52.692;6.226;2023-08-30T19:12:25;19.00;95.20
51739;DHT22;37815;52.692;6.226;2023-08-30T19:17:27;19.00;95.20
51739;DHT22;37815;52.692;6.226;2023-08-30T19:22:27;19.00;95.10
51739;DHT22;37815;52.692;6.226;2023-08-30T19:27:28;19.00;95.10
51739;DHT22;37815;52.692;6.226;2023-08-30T19:32:28;18.90;95.10
51739;DHT22;37815;52.692;6.226;2023-08-30T19:37:29;19.00;95.00
51739;DHT22;37815;52.692;6.226;2023-08-30T19:42:32;18.90;95.00
51739;DHT22;37815;52.692;6.226;2023-08-30T19:47:32;18.90;95.00
51739;DHT22;37815;52.692;6.226;2023-08-30T19:52:33;18.90;94.90
51739;DHT22;37815;52.692;6.226;2023-08-30T19:57:34;19.00;94.90
51739;DHT22;37815;52.692;6.226;2023-08-30T20:02:37;18.80;94.80
51739;DHT22;37815;52.692;6.226;2023-08-30T20:07:37;18.90;95.00
51739;DHT22;37815;52.692;6.226;2023-08-30T20:12:38;18.80;94.70
51739;DHT22;37815;52.692;6.226;2023-08-30T20:17:39;18.80;94.60
51739;DHT22;37815;52.692;6.226;2023-08-30T20:22:39;18.80;94.50
51739;DHT22;37815;52.692;6.226;2023-08-30T20:27:41;18.80;94.50
51739;DHT22;37815;52.692;6.226;2023-08-30T20:32:42;18.80;94.50
51739;DHT22;37815;52.692;6.226;2023-08-30T20:37:42;18.70;94.40
51739;DHT22;37815;52.692;6.226;2023-08-30T20:42:43;18.70;94.60
51739;DHT22;37815;52.692;6.226;2023-08-30T20:47:44;18.70;94.40
51739;DHT22;37815;52.692;6.226;2023-08-30T20:52:45;18.70;94.40
51739;DHT22;37815;52.692;6.226;2023-08-30T20:57:46;18.60;94.30
51739;DHT22;37815;52.692;6.226;2023-08-30T21:02:46;18.60;94.30
51739;DHT22;37815;52.692;6.226;2023-08-30T21:07:47;18.60;94.30
51739;DHT22;37815;52.692;6.226;2023-08-30T21:12:47;18.60;94.30
51739;DHT22;37815;52.692;6.226;2023-08-30T21:17:48;18.60;94.20
51739;DHT22;37815;52.692;6.226;2023-08-30T21:22:51;18.50;94.10
51739;DHT22;37815;52.692;6.226;2023-08-30T21:27:53;18.50;94.10
51739;DHT22;37815;52.692;6.226;2023-08-30T21:32:54;18.50;94.00
51739;DHT22;37815;52.692;6.226;2023-08-30T21:37:54;18.40;94.00
51739;DHT22;37815;52.692;6.226;2023-08-30T21:42:55;18.40;94.00
51739;DHT22;37815;52.692;6.226;2023-08-30T21:47:55;18.40;94.00
51739;DHT22;37815;52.692;6.226;2023-08-30T21:52:56;18.40;94.00
51739;DHT22;37815;52.692;6.226;2023-08-30T21:57:57;18.40;94.00
51739;DHT22;37815;52.692;6.226;2023-08-30T22:02:58;18.30;94.00
51739;DHT22;37815;52.692;6.226;2023-08-30T22:07:59;18.30;94.00
51739;DHT22;37815;52.692;6.226;2023-08-30T22:12:59;18.30;94.00
51739;DHT22;37815;52.692;6.226;2023-08-30T22:18:00;18.30;93.90
51739;DHT22;37815;52.692;6.226;2023-08-30T22:23:01;18.30;94.00
51739;DHT22;37815;52.692;6.226;2023-08-30T22:28:03;18.20;93.90
51739;DHT22;37815;52.692;6.226;2023-08-30T22:33:04;18.20;93.90
51739;DHT22;37815;52.692;6.226;2023-08-30T22:38:04;18.20;93.90
51739;DHT22;37815;52.692;6.226;2023-08-30T22:43:05;18.20;93.90
51739;DHT22;37815;52.692;6.226;2023-08-30T22:48:06;18.20;93.90
51739;DHT22;37815;52.692;6.226;2023-08-30T22:53:07;18.20;93.90
51739;DHT22;37815;52.692;6.226;2023-08-30T22:58:07;18.20;93.90
51739;DHT22;37815;52.692;6.226;2023-08-30T23:03:08;18.10;93.80
51739;DHT22;37815;52.692;6.226;2023-08-30T23:08:09;18.10;93.80
51739;DHT22;37815;52.692;6.226;2023-08-30T23:13:10;18.10;93.80
51739;DHT22;37815;52.692;6.226;2023-08-30T23:18:10;18.10;93.80
51739;DHT22;37815;52.692;6.226;2023-08-30T23:23:11;18.50;93.80
51739;DHT22;37815;52.692;6.226;2023-08-30T23:28:12;18.10;93.70
51739;DHT22;37815;52.692;6.226;2023-08-30T23:33:14;18.00;93.70
51739;DHT22;37815;52.692;6.226;2023-08-30T23:38:15;18.00;93.70
51739;DHT22;37815;52.692;6.226;2023-08-30T23:43:15;18.00;93.70
51739;DHT22;37815;52.692;6.226;2023-08-30T23:48:16;18.00;93.70
51739;DHT22;37815;52.692;6.226;2023-08-30T23:53:17;18.00;93.70
51739;DHT22;37815;52.692;6.226;2023-08-30T23:58:17;17.90;93.70
